createdAt,value
2023-01-20T00:02:27.628Z,35.60
2023-01-20T00:04:58.394Z,33.20
2023-01-20T00:07:29.240Z,34.78
2023-01-20T00:10:05.252Z,36.00
2023-01-20T00:12:36.895Z,39.35
2023-01-20T00:15:12.762Z,38.60
2023-01-20T00:17:46.222Z,39.37
2023-01-20T00:20:17.340Z,39.05
2023-01-20T00:22:48.033Z,39.28
2023-01-20T00:25:19.079Z,41.85
2023-01-20T00:27:49.805Z,45.67
2023-01-20T00:30:24.865Z,43.13
2023-01-20T00:32:55.847Z,42.78
2023-01-20T00:35:26.784Z,39.75
2023-01-20T00:37:59.452Z,36.83
2023-01-20T00:40:30.154Z,42.90
2023-01-20T00:43:00.903Z,39.03
2023-01-20T00:45:34.328Z,38.38
2023-01-20T00:48:05.259Z,38.90
2023-01-20T00:50:35.947Z,42.67
2023-01-20T00:53:06.749Z,38.50
2023-01-20T00:55:37.563Z,36.60
2023-01-20T00:58:17.409Z,34.07
2023-01-20T01:00:53.802Z,37.70
2023-01-20T01:03:25.201Z,39.10
2023-01-20T01:05:55.919Z,37.72
2023-01-20T01:08:26.667Z,40.78
2023-01-20T01:10:58.798Z,39.53
2023-01-20T01:13:29.578Z,40.47
2023-01-20T01:16:03.362Z,38.00
2023-01-20T01:18:34.211Z,39.90
2023-01-20T01:21:12.360Z,40.00
2023-01-20T01:23:43.133Z,39.47
2023-01-20T01:26:13.915Z,39.47
2023-01-20T01:28:44.772Z,40.88
2023-01-20T01:31:21.839Z,42.10
2023-01-20T01:33:52.633Z,41.80
2023-01-20T01:36:23.435Z,47.58
2023-01-20T01:38:58.521Z,41.03
2023-01-20T01:41:30.328Z,47.55
2023-01-20T01:44:10.388Z,41.40
2023-01-20T01:46:44.625Z,43.03
2023-01-20T01:49:20.751Z,43.47
2023-01-20T01:51:55.559Z,46.15
2023-01-20T01:54:40.032Z,39.92
2023-01-20T01:57:11.599Z,41.55
2023-01-20T01:59:45.017Z,42.78
2023-01-20T02:02:22.704Z,40.00
2023-01-20T02:04:55.027Z,38.80
2023-01-20T02:07:25.871Z,36.55
2023-01-20T02:09:56.692Z,36.33
2023-01-20T02:12:43.614Z,36.85
2023-01-20T02:15:16.454Z,35.13
2023-01-20T02:18:01.484Z,35.13
2023-01-20T02:20:57.665Z,37.00
2023-01-20T02:23:47.520Z,34.83
2023-01-20T02:26:46.465Z,35.25
2023-01-20T02:29:48.041Z,36.33
2023-01-20T02:32:29.862Z,34.67
2023-01-20T02:35:05.831Z,37.70
2023-01-20T02:37:41.585Z,38.88
2023-01-20T02:40:27.972Z,39.15
2023-01-20T02:43:05.112Z,37.42
2023-01-20T02:45:45.946Z,37.87
2023-01-20T02:48:25.855Z,42.95
2023-01-20T02:51:03.924Z,43.75
2023-01-20T02:53:40.902Z,44.78
2023-01-20T02:56:15.198Z,44.45
2023-01-20T02:58:51.637Z,40.90
2023-01-20T03:01:28.081Z,45.65
2023-01-20T03:04:04.776Z,41.22
2023-01-20T03:06:40.147Z,42.15
2023-01-20T03:09:15.614Z,39.80
2023-01-20T03:11:53.423Z,42.67
2023-01-20T03:14:24.635Z,42.95
2023-01-20T03:16:55.747Z,45.65
2023-01-20T03:19:31.303Z,42.58
2023-01-20T03:22:02.040Z,40.40
2023-01-20T03:24:35.477Z,40.58
2023-01-20T03:27:06.767Z,43.60
2023-01-20T03:29:37.681Z,45.33
2023-01-20T03:32:11.399Z,42.05
2023-01-20T03:34:46.702Z,42.67
2023-01-20T03:37:17.649Z,42.25
2023-01-20T03:39:48.512Z,48.35
2023-01-20T03:42:27.101Z,37.35
2023-01-20T03:45:07.989Z,40.15
2023-01-20T03:47:56.221Z,37.28
2023-01-20T03:50:40.535Z,35.67
2023-01-20T03:53:21.643Z,38.10
2023-01-20T03:55:59.732Z,39.33
2023-01-20T03:58:33.773Z,40.92
2023-01-20T04:01:17.970Z,39.85
2023-01-20T04:03:52.936Z,44.28
2023-01-20T04:06:32.063Z,42.97
2023-01-20T04:09:06.218Z,35.38
2023-01-20T04:11:37.161Z,39.58
2023-01-20T04:14:08.416Z,40.47
2023-01-20T04:16:40.234Z,35.90
2023-01-20T04:19:10.979Z,38.72
2023-01-20T04:21:50.701Z,35.90
2023-01-20T04:24:27.958Z,35.83
2023-01-20T04:26:58.631Z,35.80
2023-01-20T04:29:29.372Z,28.77
2023-01-20T04:32:03.760Z,29.00
2023-01-20T04:34:34.642Z,35.30
2023-01-20T04:37:08.149Z,34.00
2023-01-20T04:39:39.153Z,28.52
2023-01-20T04:42:09.877Z,26.60
2023-01-20T04:44:42.904Z,27.58
2023-01-20T04:47:13.665Z,25.07
2023-01-20T04:49:47.019Z,26.55
2023-01-20T04:52:20.390Z,24.77
2023-01-20T04:54:51.125Z,25.88
2023-01-20T04:57:22.095Z,28.45
2023-01-20T04:59:52.825Z,26.88
2023-01-20T05:02:23.661Z,30.65
2023-01-20T05:04:54.631Z,29.80
2023-01-20T05:07:28.217Z,25.52
2023-01-20T05:09:58.970Z,30.15
2023-01-20T05:12:31.510Z,25.90
2023-01-20T05:15:02.296Z,25.55
2023-01-20T05:17:33.191Z,28.60
2023-01-20T05:20:04.005Z,26.50
2023-01-20T05:22:37.485Z,25.80
2023-01-20T05:25:09.467Z,30.35
2023-01-20T05:27:40.646Z,26.20
2023-01-20T05:30:15.431Z,25.65
2023-01-20T05:32:52.689Z,23.25
2023-01-20T05:35:23.757Z,24.65
2023-01-20T05:37:58.774Z,24.70
2023-01-20T05:40:31.913Z,27.33
2023-01-20T05:43:02.944Z,23.60
2023-01-20T05:45:34.284Z,22.02
2023-01-20T05:48:05.929Z,23.27
2023-01-20T05:50:38.710Z,23.25
2023-01-20T05:53:12.063Z,24.55
2023-01-20T05:55:44.432Z,21.88
2023-01-20T05:58:15.472Z,21.57
2023-01-20T06:00:46.294Z,21.75
2023-01-20T06:03:19.819Z,28.45
2023-01-20T06:05:51.273Z,25.98
2023-01-20T06:08:24.536Z,21.13
2023-01-20T06:10:56.288Z,19.65
2023-01-20T06:13:36.280Z,23.10
2023-01-20T06:16:07.964Z,24.20
2023-01-20T06:18:38.982Z,23.33
2023-01-20T06:21:10.136Z,24.48
2023-01-20T06:23:43.441Z,27.25
2023-01-20T06:26:16.213Z,23.73
2023-01-20T06:28:46.967Z,24.35
2023-01-20T06:31:19.095Z,23.27
2023-01-20T06:33:49.894Z,27.95
2023-01-20T06:36:20.882Z,27.95
2023-01-20T06:38:54.316Z,27.58
2023-01-20T06:41:25.680Z,26.30
2023-01-20T06:43:56.508Z,29.17
2023-01-20T06:46:29.908Z,32.55
2023-01-20T06:49:01.440Z,27.42
2023-01-20T06:51:33.718Z,27.40
2023-01-20T06:54:07.130Z,29.23
2023-01-20T06:56:38.030Z,25.30
2023-01-20T06:59:08.819Z,33.50
2023-01-20T07:01:43.086Z,34.50
2023-01-20T07:04:16.669Z,33.45
2023-01-20T07:06:47.510Z,35.35
2023-01-20T07:09:20.983Z,31.35
2023-01-20T07:11:51.843Z,30.10
2023-01-20T07:14:22.563Z,31.38
2023-01-20T07:16:53.543Z,28.38
2023-01-20T07:19:24.332Z,31.42
2023-01-20T07:21:55.050Z,30.00
2023-01-20T07:24:28.698Z,26.33
2023-01-20T07:26:59.911Z,25.65
2023-01-20T07:29:30.678Z,25.83
2023-01-20T07:32:01.548Z,24.70
2023-01-20T07:34:32.737Z,27.15
2023-01-20T07:37:04.070Z,29.63
2023-01-20T07:39:38.167Z,25.80
2023-01-20T07:42:09.067Z,27.00
2023-01-20T07:44:39.779Z,24.33
2023-01-20T07:47:10.742Z,23.92
2023-01-20T07:49:41.515Z,23.92
2023-01-20T07:52:12.318Z,22.13
2023-01-20T07:54:48.605Z,24.48
2023-01-20T07:57:19.480Z,22.00
2023-01-20T07:59:50.391Z,25.00
2023-01-20T08:02:21.424Z,27.15
2023-01-20T08:04:52.239Z,26.47
2023-01-20T08:07:23.007Z,24.97
2023-01-20T08:09:56.315Z,26.30
2023-01-20T08:12:27.651Z,27.02
2023-01-20T08:14:58.807Z,28.40
2023-01-20T08:17:29.668Z,29.67
2023-01-20T08:20:00.424Z,27.13
2023-01-20T08:22:31.248Z,25.65
2023-01-20T08:25:05.949Z,28.10
2023-01-20T08:27:36.741Z,31.53
2023-01-20T08:30:09.046Z,29.67
2023-01-20T08:32:39.835Z,28.92
2023-01-20T08:35:12.772Z,29.00
2023-01-20T08:37:43.844Z,29.90
2023-01-20T08:40:18.351Z,31.23
2023-01-20T08:42:49.345Z,33.30
2023-01-20T08:45:20.106Z,29.67
2023-01-20T08:47:50.869Z,31.90
2023-01-20T08:50:22.703Z,30.83
2023-01-20T08:52:53.455Z,30.33
2023-01-20T08:55:26.800Z,29.20
2023-01-20T08:58:00.961Z,28.43
2023-01-20T09:00:31.784Z,30.88
2023-01-20T09:03:02.610Z,27.67
2023-01-20T09:05:33.368Z,22.73
2023-01-20T09:08:04.106Z,25.87
2023-01-20T09:10:39.035Z,24.23
2023-01-20T09:13:10.049Z,22.80
2023-01-20T09:15:41.391Z,20.70
2023-01-20T09:18:12.272Z,22.95
2023-01-20T09:20:43.017Z,21.47
2023-01-20T09:23:13.738Z,20.37
2023-01-20T09:25:47.413Z,19.33
2023-01-20T09:28:18.194Z,17.97
2023-01-20T09:30:49.236Z,18.20
2023-01-20T09:33:22.715Z,18.10
2023-01-20T09:36:12.707Z,19.23
2023-01-20T09:38:55.932Z,20.23
2023-01-20T09:41:45.622Z,17.00
2023-01-20T09:44:36.179Z,18.87
2023-01-20T09:47:26.169Z,17.57
2023-01-20T09:50:31.050Z,19.80
2023-01-20T09:53:25.549Z,19.80
2023-01-20T09:56:03.079Z,14.93
2023-01-20T09:58:44.752Z,18.93
2023-01-20T10:01:33.398Z,17.10
2023-01-20T10:04:10.140Z,18.17
2023-01-20T10:06:48.924Z,18.90
2023-01-20T10:09:27.414Z,17.83
2023-01-20T10:12:10.085Z,17.40
2023-01-20T10:14:48.938Z,16.60
2023-01-20T10:17:26.245Z,18.80
2023-01-20T10:20:04.040Z,16.50
2023-01-20T10:22:43.766Z,16.33
2023-01-20T10:25:20.119Z,17.20
2023-01-20T10:27:55.857Z,16.90
2023-01-20T10:30:34.438Z,14.17
2023-01-20T10:33:11.015Z,14.67
2023-01-20T10:35:47.312Z,19.20
2023-01-20T10:38:27.396Z,14.70
2023-01-20T10:41:05.279Z,17.23
2023-01-20T10:43:36.207Z,15.87
2023-01-20T10:46:23.523Z,15.47
2023-01-20T10:49:16.523Z,15.60
2023-01-20T10:51:54.460Z,12.13
2023-01-20T10:54:32.221Z,10.90
2023-01-20T10:57:06.771Z,14.37
2023-01-20T10:59:44.491Z,11.83
2023-01-20T11:02:22.751Z,13.97
2023-01-20T11:04:59.143Z,13.97
2023-01-20T11:07:31.562Z,15.27
2023-01-20T11:10:06.609Z,11.60
2023-01-20T11:12:45.721Z,11.70
2023-01-20T11:15:22.059Z,12.73
2023-01-20T11:18:26.492Z,11.67
2023-01-20T11:21:00.410Z,12.80
2023-01-20T11:23:52.202Z,10.80
2023-01-20T11:26:28.036Z,12.80
2023-01-20T11:29:01.376Z,10.97
2023-01-20T11:31:44.117Z,11.63
2023-01-20T11:34:29.278Z,10.67
2023-01-20T11:37:19.604Z,8.63
2023-01-20T11:40:02.871Z,11.43
2023-01-20T11:42:44.958Z,10.23
2023-01-20T11:45:32.740Z,11.67
2023-01-20T11:48:19.325Z,10.40
2023-01-20T11:50:57.496Z,12.07
2023-01-20T11:53:31.756Z,8.27
2023-01-20T11:56:04.723Z,9.33
2023-01-20T11:58:51.402Z,11.10
2023-01-20T12:01:26.937Z,11.00
2023-01-20T12:04:17.834Z,9.30
2023-01-20T12:06:58.384Z,7.07
2023-01-20T12:09:33.877Z,9.53
2023-01-20T12:12:08.193Z,9.57
2023-01-20T12:14:43.802Z,10.93
2023-01-20T12:17:34.177Z,8.90
2023-01-20T12:20:14.444Z,8.33
2023-01-20T12:23:01.555Z,10.27
2023-01-20T12:25:36.958Z,9.00
2023-01-20T12:28:16.179Z,7.13
2023-01-20T12:30:56.814Z,7.20
2023-01-20T12:33:31.558Z,8.77
2023-01-20T12:36:23.555Z,8.53
2023-01-20T12:39:15.308Z,7.67
2023-01-20T12:42:05.323Z,7.40
2023-01-20T12:44:45.755Z,7.67
2023-01-20T12:47:31.346Z,8.90
2023-01-20T12:50:22.714Z,8.70
2023-01-20T12:53:10.665Z,7.50
2023-01-20T12:55:58.004Z,10.30
2023-01-20T12:58:43.085Z,8.23
2023-01-20T13:01:42.987Z,7.47
2023-01-20T13:04:39.285Z,7.90
2023-01-20T13:07:42.939Z,8.60
2023-01-20T13:10:24.941Z,6.83
2023-01-20T13:13:03.105Z,7.07
2023-01-20T13:15:39.707Z,11.73
2023-01-20T13:18:23.267Z,9.80
2023-01-20T13:20:55.578Z,9.60
2023-01-20T13:23:31.333Z,14.30
2023-01-20T13:26:04.019Z,10.47
2023-01-20T13:28:37.891Z,8.93
2023-01-20T13:31:40.444Z,8.77
2023-01-20T13:34:33.680Z,8.63
2023-01-20T13:37:25.288Z,9.50
2023-01-20T13:39:58.086Z,10.20
2023-01-20T13:42:48.732Z,8.20
2023-01-20T13:45:29.594Z,7.10
2023-01-20T13:48:03.385Z,15.13
2023-01-20T13:50:36.449Z,11.33
2023-01-20T13:53:28.143Z,9.67
2023-01-20T13:56:02.068Z,8.50
2023-01-20T13:58:34.575Z,8.43
2023-01-20T14:01:10.373Z,9.30
2023-01-20T14:03:42.499Z,8.23
2023-01-20T14:06:24.200Z,6.13
2023-01-20T14:08:55.249Z,7.50
2023-01-20T14:11:27.587Z,8.37
2023-01-20T14:14:01.851Z,8.83
2023-01-20T14:16:42.099Z,11.00
2023-01-20T14:19:25.023Z,9.97
2023-01-20T14:21:58.181Z,9.93
2023-01-20T14:24:30.987Z,10.60
2023-01-20T14:27:14.491Z,8.70
2023-01-20T14:29:46.524Z,10.83
2023-01-20T14:32:22.830Z,9.57
2023-01-20T14:34:54.493Z,8.70
2023-01-20T14:37:31.009Z,18.63
2023-01-20T14:40:08.962Z,11.13
2023-01-20T14:42:43.429Z,11.03
2023-01-20T14:45:23.548Z,9.33
2023-01-20T14:47:57.774Z,10.90
2023-01-20T14:50:29.549Z,14.10
2023-01-20T14:53:02.923Z,8.03
2023-01-20T14:55:35.927Z,8.37
2023-01-20T14:58:11.196Z,9.60
2023-01-20T15:00:45.956Z,9.97
2023-01-20T15:03:23.904Z,13.43
2023-01-20T15:05:59.483Z,10.90
2023-01-20T15:08:56.738Z,11.20
2023-01-20T15:11:32.627Z,10.07
2023-01-20T15:14:14.649Z,9.27
2023-01-20T15:16:49.639Z,14.57
2023-01-20T15:19:32.846Z,13.07
2023-01-20T15:22:22.010Z,11.30
2023-01-20T15:24:54.887Z,9.80
2023-01-20T15:27:34.905Z,8.23
2023-01-20T15:30:27.296Z,9.50
2023-01-20T15:32:58.332Z,8.90
2023-01-20T15:35:35.765Z,9.00
2023-01-20T15:38:14.377Z,8.90
2023-01-20T15:40:45.107Z,9.23
2023-01-20T15:43:18.904Z,11.53
2023-01-20T15:45:49.665Z,12.60
2023-01-20T15:48:22.604Z,11.33
2023-01-20T15:50:58.797Z,11.30
2023-01-20T15:53:29.715Z,8.83
2023-01-20T15:56:00.517Z,10.20
2023-01-20T15:58:34.913Z,10.50
2023-01-20T16:01:05.846Z,10.60
2023-01-20T16:03:37.068Z,11.53
2023-01-20T16:06:14.681Z,13.90
2023-01-20T16:08:48.387Z,10.00
2023-01-20T16:11:20.207Z,7.88
2023-01-20T16:13:51.267Z,12.35
2023-01-20T16:16:24.213Z,9.90
2023-01-20T16:18:55.037Z,9.45
2023-01-20T16:21:28.583Z,9.47
2023-01-20T16:23:59.383Z,12.25
2023-01-20T16:26:32.077Z,8.73
2023-01-20T16:29:04.792Z,13.88
2023-01-20T16:31:36.105Z,10.38
2023-01-20T16:34:08.013Z,10.65
2023-01-20T16:36:42.988Z,10.50
2023-01-20T16:39:14.310Z,11.27
2023-01-20T16:41:52.939Z,13.38
2023-01-20T16:44:24.132Z,12.02
2023-01-20T16:46:57.441Z,10.68
2023-01-20T16:49:28.153Z,14.50
2023-01-20T16:52:01.482Z,17.13
2023-01-20T16:54:35.047Z,13.43
2023-01-20T16:57:05.786Z,12.40
2023-01-20T16:59:36.528Z,11.05
2023-01-20T17:02:11.061Z,14.95
2023-01-20T17:04:42.019Z,11.48
2023-01-20T17:07:15.352Z,14.25
2023-01-20T17:09:46.943Z,9.93
2023-01-20T17:12:19.168Z,11.48
2023-01-20T17:14:49.953Z,13.25
2023-01-20T17:17:24.250Z,16.58
2023-01-20T17:19:55.006Z,17.63
2023-01-20T17:22:28.411Z,18.40
2023-01-20T17:24:59.194Z,21.23
2023-01-20T17:27:30.026Z,17.90
2023-01-20T17:30:03.950Z,20.33
2023-01-20T17:32:34.713Z,18.70
2023-01-20T17:35:09.672Z,14.98
2023-01-20T17:37:45.550Z,15.73
2023-01-20T17:40:17.227Z,15.55
2023-01-20T17:42:51.020Z,16.25
2023-01-20T17:45:21.747Z,17.80
2023-01-20T17:47:56.107Z,23.15
2023-01-20T17:50:26.931Z,14.95
2023-01-20T17:53:00.743Z,16.30
2023-01-20T17:55:37.257Z,20.02
2023-01-20T17:58:07.987Z,19.40
2023-01-20T18:00:39.172Z,21.58
2023-01-20T18:03:10.928Z,21.73
2023-01-20T18:05:41.650Z,20.17
2023-01-20T18:08:16.471Z,21.08
2023-01-20T18:10:47.411Z,21.88
2023-01-20T18:13:18.379Z,22.80
2023-01-20T18:15:49.186Z,20.85
2023-01-20T18:18:20.628Z,25.58
2023-01-20T18:20:51.574Z,20.95
2023-01-20T18:23:25.019Z,20.52
2023-01-20T18:25:58.507Z,19.15
2023-01-20T18:28:29.350Z,23.45
2023-01-20T18:31:08.504Z,18.98
2023-01-20T18:33:44.129Z,21.80
2023-01-20T18:36:18.064Z,25.38
2023-01-20T18:38:55.766Z,22.63
2023-01-20T18:41:28.012Z,22.85
2023-01-20T18:43:59.255Z,21.20
2023-01-20T18:46:30.651Z,24.23
2023-01-20T18:49:01.574Z,21.83
2023-01-20T18:51:33.241Z,25.48
2023-01-20T18:54:10.421Z,20.92
2023-01-20T18:56:41.425Z,24.00
2023-01-20T18:59:14.154Z,24.38
2023-01-20T19:01:45.560Z,24.90
2023-01-20T19:04:16.404Z,21.23
2023-01-20T19:06:48.029Z,21.05
2023-01-20T19:09:21.455Z,25.13
2023-01-20T19:11:52.173Z,26.75
2023-01-20T19:14:23.077Z,24.20
2023-01-20T19:16:54.170Z,24.08
2023-01-20T19:19:25.034Z,27.90
2023-01-20T19:21:55.814Z,27.60
2023-01-20T19:24:32.401Z,22.60
2023-01-20T19:27:03.920Z,24.35
2023-01-20T19:29:35.073Z,25.27
2023-01-20T19:32:08.271Z,25.27
2023-01-20T19:34:39.443Z,26.05
2023-01-20T19:37:10.154Z,25.52
2023-01-20T19:39:43.477Z,31.73
2023-01-20T19:42:14.385Z,27.65
2023-01-20T19:44:45.143Z,29.33
2023-01-20T19:47:15.945Z,24.73
2023-01-20T19:49:49.782Z,29.75
2023-01-20T19:52:24.779Z,30.33
2023-01-20T19:54:58.083Z,25.15
2023-01-20T19:57:29.742Z,28.58
2023-01-20T20:00:00.493Z,30.45
2023-01-20T20:02:31.203Z,35.13
2023-01-20T20:05:01.972Z,30.55
2023-01-20T20:07:32.688Z,29.42
2023-01-20T20:10:06.439Z,34.05
2023-01-20T20:12:37.160Z,31.70
2023-01-20T20:15:09.737Z,31.48
2023-01-20T20:17:40.519Z,32.17
2023-01-20T20:20:13.034Z,32.95
2023-01-20T20:22:43.858Z,36.53
2023-01-20T20:25:17.246Z,36.65
2023-01-20T20:27:47.908Z,35.00
2023-01-20T20:30:20.672Z,31.42
2023-01-20T20:32:51.416Z,36.90
2023-01-20T20:35:22.195Z,39.40
2023-01-20T20:37:52.936Z,35.70
2023-01-20T20:40:26.474Z,40.78
2023-01-20T20:43:01.935Z,35.38
2023-01-20T20:45:33.863Z,33.30
2023-01-20T20:48:04.733Z,34.47
2023-01-20T20:50:36.358Z,39.72
2023-01-20T20:53:08.058Z,38.10
2023-01-20T20:55:45.058Z,39.13
2023-01-20T20:58:17.327Z,44.85
2023-01-20T21:00:56.764Z,42.63
2023-01-20T21:03:28.024Z,43.97
2023-01-20T21:05:58.863Z,40.35
2023-01-20T21:08:29.693Z,37.55
2023-01-20T21:11:08.100Z,35.20
2023-01-20T21:13:38.842Z,37.75
2023-01-20T21:16:13.933Z,38.50
2023-01-20T21:18:44.982Z,39.08
2023-01-20T21:21:19.256Z,36.45
2023-01-20T21:23:54.667Z,34.05
2023-01-20T21:26:30.707Z,38.13
2023-01-20T21:29:03.800Z,36.28
2023-01-20T21:31:34.926Z,34.90
2023-01-20T21:34:06.781Z,36.13
2023-01-20T21:36:41.491Z,35.38
2023-01-20T21:39:14.821Z,35.58
2023-01-20T21:41:50.769Z,36.60
2023-01-20T21:44:32.455Z,39.60
2023-01-20T21:47:04.874Z,39.35
2023-01-20T21:49:49.544Z,36.72
2023-01-20T21:52:35.208Z,38.38
2023-01-20T21:55:08.131Z,34.78
2023-01-20T21:57:41.803Z,39.13
2023-01-20T22:00:16.200Z,38.17
2023-01-20T22:02:49.035Z,37.35
2023-01-20T22:05:20.360Z,39.10
2023-01-20T22:07:53.950Z,35.05
2023-01-20T22:10:24.692Z,35.45
2023-01-20T22:12:58.081Z,38.65
2023-01-20T22:15:29.979Z,38.45
2023-01-20T22:18:01.446Z,38.55
2023-01-20T22:20:32.292Z,38.42
2023-01-20T22:23:03.387Z,36.10
2023-01-20T22:25:34.095Z,40.80
2023-01-20T22:28:07.864Z,37.05
2023-01-20T22:30:38.679Z,36.10
2023-01-20T22:33:09.430Z,39.65
2023-01-20T22:35:40.459Z,41.97
2023-01-20T22:38:11.205Z,40.17
2023-01-20T22:40:41.993Z,38.33
2023-01-20T22:43:15.309Z,40.28
2023-01-20T22:45:48.205Z,39.58
2023-01-20T22:48:19.149Z,39.65
2023-01-20T22:50:49.884Z,41.05
2023-01-20T22:53:20.717Z,40.40
2023-01-20T22:56:00.951Z,37.83
2023-01-20T22:58:35.170Z,41.28
2023-01-20T23:01:06.534Z,37.35
2023-01-20T23:03:37.212Z,32.85
2023-01-20T23:06:08.018Z,40.50
2023-01-20T23:08:42.178Z,36.15
2023-01-20T23:11:15.204Z,40.78
2023-01-20T23:13:49.357Z,39.17
2023-01-20T23:16:22.449Z,48.33
2023-01-20T23:18:56.496Z,38.00
2023-01-20T23:21:27.399Z,44.47
2023-01-20T23:23:58.134Z,40.35
2023-01-20T23:26:30.666Z,42.80
2023-01-20T23:29:04.135Z,39.35
2023-01-20T23:31:35.718Z,42.70
2023-01-20T23:34:06.567Z,41.50
2023-01-20T23:36:46.528Z,40.50
2023-01-20T23:39:17.246Z,44.53
2023-01-20T23:41:48.124Z,45.70
2023-01-20T23:44:21.422Z,39.72
2023-01-20T23:46:52.149Z,38.97
2023-01-20T23:49:22.993Z,40.08
2023-01-20T23:51:53.742Z,39.40
2023-01-20T23:54:24.701Z,40.08
2023-01-20T23:56:55.453Z,43.10
2023-01-20T23:59:28.784Z,41.13
